sensor_id;sensor_type;location;lat;lon;timestamp;P1;durP1;ratioP1;P2;durP2;ratioP2
33802;SDS011;20110;53.120;5.786;2023-04-22T00:01:45;17.60;;;11.13;;
33802;SDS011;20110;53.120;5.786;2023-04-22T00:04:11;21.58;;;11.85;;
33802;SDS011;20110;53.120;5.786;2023-04-22T00:06:37;22.98;;;11.63;;
33802;SDS011;20110;53.120;5.786;2023-04-22T00:09:02;21.33;;;11.45;;
33802;SDS011;20110;53.120;5.786;2023-04-22T00:11:28;21.10;;;12.23;;
33802;SDS011;20110;53.120;5.786;2023-04-22T00:13:54;19.23;;;12.75;;
33802;SDS011;20110;53.120;5.786;2023-04-22T00:16:20;19.13;;;11.82;;
33802;SDS011;20110;53.120;5.786;2023-04-22T00:18:46;23.73;;;12.43;;
33802;SDS011;20110;53.120;5.786;2023-04-22T00:21:12;25.95;;;12.93;;
33802;SDS011;20110;53.120;5.786;2023-04-22T00:23:38;22.92;;;13.27;;
33802;SDS011;20110;53.120;5.786;2023-04-22T00:26:04;41.00;;;14.13;;
33802;SDS011;20110;53.120;5.786;2023-04-22T00:28:30;25.02;;;13.15;;
33802;SDS011;20110;53.120;5.786;2023-04-22T00:30:56;25.45;;;13.27;;
33802;SDS011;20110;53.120;5.786;2023-04-22T00:33:23;22.20;;;13.20;;
33802;SDS011;20110;53.120;5.786;2023-04-22T00:35:49;19.95;;;13.35;;
33802;SDS011;20110;53.120;5.786;2023-04-22T00:38:15;23.95;;;13.02;;
33802;SDS011;20110;53.120;5.786;2023-04-22T00:40:41;34.60;;;13.95;;
33802;SDS011;20110;53.120;5.786;2023-04-22T00:43:07;29.55;;;15.07;;
33802;SDS011;20110;53.120;5.786;2023-04-22T00:45:34;43.95;;;15.23;;
33802;SDS011;20110;53.120;5.786;2023-04-22T00:48:01;132.35;;;20.83;;
33802;SDS011;20110;53.120;5.786;2023-04-22T00:50:27;581.95;;;41.88;;
33802;SDS011;20110;53.120;5.786;2023-04-22T00:52:53;355.88;;;29.70;;
33802;SDS011;20110;53.120;5.786;2023-04-22T00:55:18;71.57;;;18.10;;
33802;SDS011;20110;53.120;5.786;2023-04-22T00:57:44;295.15;;;33.00;;
33802;SDS011;20110;53.120;5.786;2023-04-22T01:00:13;144.00;;;21.45;;
33802;SDS011;20110;53.120;5.786;2023-04-22T01:02:40;47.63;;;17.35;;
33802;SDS011;20110;53.120;5.786;2023-04-22T01:05:06;29.25;;;14.02;;
33802;SDS011;20110;53.120;5.786;2023-04-22T01:07:33;30.48;;;14.68;;
33802;SDS011;20110;53.120;5.786;2023-04-22T01:10:00;27.55;;;14.40;;
33802;SDS011;20110;53.120;5.786;2023-04-22T01:12:27;31.45;;;14.48;;
33802;SDS011;20110;53.120;5.786;2023-04-22T01:14:53;44.17;;;14.82;;
33802;SDS011;20110;53.120;5.786;2023-04-22T01:17:19;26.42;;;13.30;;
33802;SDS011;20110;53.120;5.786;2023-04-22T01:19:46;32.05;;;14.32;;
33802;SDS011;20110;53.120;5.786;2023-04-22T01:22:13;38.85;;;16.90;;
33802;SDS011;20110;53.120;5.786;2023-04-22T01:24:39;55.33;;;17.45;;
33802;SDS011;20110;53.120;5.786;2023-04-22T01:27:05;39.17;;;16.25;;
33802;SDS011;20110;53.120;5.786;2023-04-22T01:29:32;40.95;;;17.23;;
33802;SDS011;20110;53.120;5.786;2023-04-22T01:32:02;38.47;;;17.10;;
33802;SDS011;20110;53.120;5.786;2023-04-22T01:34:29;39.00;;;17.75;;
33802;SDS011;20110;53.120;5.786;2023-04-22T01:36:55;68.88;;;20.85;;
33802;SDS011;20110;53.120;5.786;2023-04-22T01:39:21;52.83;;;19.55;;
33802;SDS011;20110;53.120;5.786;2023-04-22T01:41:47;45.70;;;17.40;;
33802;SDS011;20110;53.120;5.786;2023-04-22T01:44:13;53.38;;;19.20;;
33802;SDS011;20110;53.120;5.786;2023-04-22T01:46:40;51.03;;;20.42;;
33802;SDS011;20110;53.120;5.786;2023-04-22T01:49:06;39.33;;;19.13;;
33802;SDS011;20110;53.120;5.786;2023-04-22T01:51:31;54.17;;;20.73;;
33802;SDS011;20110;53.120;5.786;2023-04-22T01:53:57;41.67;;;19.50;;
33802;SDS011;20110;53.120;5.786;2023-04-22T01:56:23;60.58;;;20.90;;
33802;SDS011;20110;53.120;5.786;2023-04-22T01:58:49;46.55;;;18.90;;
33802;SDS011;20110;53.120;5.786;2023-04-22T02:01:15;47.58;;;19.17;;
33802;SDS011;20110;53.120;5.786;2023-04-22T02:03:41;47.78;;;18.95;;
33802;SDS011;20110;53.120;5.786;2023-04-22T02:06:06;40.78;;;18.85;;
33802;SDS011;20110;53.120;5.786;2023-04-22T02:08:32;39.45;;;17.90;;
33802;SDS011;20110;53.120;5.786;2023-04-22T02:10:58;44.30;;;18.73;;
33802;SDS011;20110;53.120;5.786;2023-04-22T02:13:25;54.58;;;20.35;;
33802;SDS011;20110;53.120;5.786;2023-04-22T02:15:58;66.53;;;21.23;;
33802;SDS011;20110;53.120;5.786;2023-04-22T02:18:24;79.07;;;21.90;;
33802;SDS011;20110;53.120;5.786;2023-04-22T02:20:50;73.10;;;22.75;;
33802;SDS011;20110;53.120;5.786;2023-04-22T02:23:15;69.50;;;22.58;;
33802;SDS011;20110;53.120;5.786;2023-04-22T02:25:46;64.40;;;23.17;;
33802;SDS011;20110;53.120;5.786;2023-04-22T02:28:16;95.22;;;26.15;;
33802;SDS011;20110;53.120;5.786;2023-04-22T02:30:44;88.72;;;26.58;;
33802;SDS011;20110;53.120;5.786;2023-04-22T02:33:10;112.88;;;27.52;;
33802;SDS011;20110;53.120;5.786;2023-04-22T02:35:36;88.85;;;25.45;;
33802;SDS011;20110;53.120;5.786;2023-04-22T02:38:02;84.15;;;26.40;;
33802;SDS011;20110;53.120;5.786;2023-04-22T02:40:28;135.23;;;30.30;;
33802;SDS011;20110;53.120;5.786;2023-04-22T02:42:54;108.97;;;28.77;;
33802;SDS011;20110;53.120;5.786;2023-04-22T02:45:20;89.78;;;25.90;;
33802;SDS011;20110;53.120;5.786;2023-04-22T02:47:46;114.28;;;29.88;;
33802;SDS011;20110;53.120;5.786;2023-04-22T02:50:12;102.22;;;27.10;;
33802;SDS011;20110;53.120;5.786;2023-04-22T02:52:38;174.73;;;33.80;;
33802;SDS011;20110;53.120;5.786;2023-04-22T02:55:04;248.38;;;36.05;;
33802;SDS011;20110;53.120;5.786;2023-04-22T02:57:31;453.10;;;50.90;;
33802;SDS011;20110;53.120;5.786;2023-04-22T02:59:56;583.13;;;51.97;;
33802;SDS011;20110;53.120;5.786;2023-04-22T03:02:22;292.27;;;36.65;;
33802;SDS011;20110;53.120;5.786;2023-04-22T03:04:48;139.93;;;29.02;;
33802;SDS011;20110;53.120;5.786;2023-04-22T03:07:14;109.30;;;25.98;;
33802;SDS011;20110;53.120;5.786;2023-04-22T03:09:40;153.82;;;29.88;;
33802;SDS011;20110;53.120;5.786;2023-04-22T03:12:06;224.15;;;33.13;;
33802;SDS011;20110;53.120;5.786;2023-04-22T03:14:31;647.88;;;57.95;;
33802;SDS011;20110;53.120;5.786;2023-04-22T03:16:57;317.73;;;35.30;;
33802;SDS011;20110;53.120;5.786;2023-04-22T03:19:23;370.02;;;37.05;;
33802;SDS011;20110;53.120;5.786;2023-04-22T03:21:49;231.50;;;30.88;;
33802;SDS011;20110;53.120;5.786;2023-04-22T03:24:14;333.15;;;36.78;;
33802;SDS011;20110;53.120;5.786;2023-04-22T03:26:40;347.13;;;39.22;;
33802;SDS011;20110;53.120;5.786;2023-04-22T03:29:06;173.27;;;27.48;;
33802;SDS011;20110;53.120;5.786;2023-04-22T03:31:32;196.88;;;32.22;;
33802;SDS011;20110;53.120;5.786;2023-04-22T03:33:58;93.18;;;24.05;;
33802;SDS011;20110;53.120;5.786;2023-04-22T03:36:24;70.47;;;21.25;;
33802;SDS011;20110;53.120;5.786;2023-04-22T03:38:51;184.93;;;32.83;;
33802;SDS011;20110;53.120;5.786;2023-04-22T03:41:17;271.10;;;35.53;;
33802;SDS011;20110;53.120;5.786;2023-04-22T03:43:42;113.15;;;25.30;;
33802;SDS011;20110;53.120;5.786;2023-04-22T03:46:08;70.68;;;23.50;;
33802;SDS011;20110;53.120;5.786;2023-04-22T03:48:34;105.20;;;23.23;;
33802;SDS011;20110;53.120;5.786;2023-04-22T03:51:01;541.80;;;54.63;;
33802;SDS011;20110;53.120;5.786;2023-04-22T03:53:27;523.70;;;46.05;;
33802;SDS011;20110;53.120;5.786;2023-04-22T03:55:53;993.40;;;72.40;;
33802;SDS011;20110;53.120;5.786;2023-04-22T03:58:19;618.20;;;55.22;;
33802;SDS011;20110;53.120;5.786;2023-04-22T04:00:44;330.80;;;34.88;;
33802;SDS011;20110;53.120;5.786;2023-04-22T04:03:10;540.00;;;51.70;;
33802;SDS011;20110;53.120;5.786;2023-04-22T04:05:37;976.13;;;56.40;;
33802;SDS011;20110;53.120;5.786;2023-04-22T04:08:03;866.13;;;49.33;;
33802;SDS011;20110;53.120;5.786;2023-04-22T04:10:29;681.85;;;44.78;;
33802;SDS011;20110;53.120;5.786;2023-04-22T04:12:55;1025.07;;;81.07;;
33802;SDS011;20110;53.120;5.786;2023-04-22T04:15:22;1043.18;;;87.97;;
33802;SDS011;20110;53.120;5.786;2023-04-22T04:17:49;644.72;;;55.05;;
33802;SDS011;20110;53.120;5.786;2023-04-22T04:20:15;542.75;;;45.63;;
33802;SDS011;20110;53.120;5.786;2023-04-22T04:22:41;330.15;;;28.25;;
33802;SDS011;20110;53.120;5.786;2023-04-22T04:25:07;380.98;;;35.60;;
33802;SDS011;20110;53.120;5.786;2023-04-22T04:27:34;597.58;;;55.35;;
33802;SDS011;20110;53.120;5.786;2023-04-22T04:30:03;526.25;;;46.20;;
33802;SDS011;20110;53.120;5.786;2023-04-22T04:32:30;594.58;;;56.25;;
33802;SDS011;20110;53.120;5.786;2023-04-22T04:34:59;336.23;;;30.77;;
33802;SDS011;20110;53.120;5.786;2023-04-22T04:37:27;347.27;;;33.88;;
33802;SDS011;20110;53.120;5.786;2023-04-22T04:39:53;127.72;;;17.95;;
33802;SDS011;20110;53.120;5.786;2023-04-22T04:42:18;175.23;;;21.30;;
33802;SDS011;20110;53.120;5.786;2023-04-22T04:44:44;206.88;;;22.23;;
33802;SDS011;20110;53.120;5.786;2023-04-22T04:47:12;251.18;;;25.45;;
33802;SDS011;20110;53.120;5.786;2023-04-22T04:49:39;207.30;;;18.58;;
33802;SDS011;20110;53.120;5.786;2023-04-22T04:52:05;122.13;;;11.95;;
33802;SDS011;20110;53.120;5.786;2023-04-22T04:54:35;298.42;;;25.27;;
33802;SDS011;20110;53.120;5.786;2023-04-22T04:57:02;56.92;;;12.35;;
33802;SDS011;20110;53.120;5.786;2023-04-22T04:59:29;62.70;;;13.30;;
33802;SDS011;20110;53.120;5.786;2023-04-22T05:01:54;107.75;;;16.23;;
33802;SDS011;20110;53.120;5.786;2023-04-22T05:04:20;286.92;;;23.05;;
33802;SDS011;20110;53.120;5.786;2023-04-22T05:06:46;150.63;;;16.73;;
33802;SDS011;20110;53.120;5.786;2023-04-22T05:09:12;78.78;;;9.85;;
33802;SDS011;20110;53.120;5.786;2023-04-22T05:11:38;75.95;;;12.45;;
33802;SDS011;20110;53.120;5.786;2023-04-22T05:14:04;58.45;;;12.55;;
33802;SDS011;20110;53.120;5.786;2023-04-22T05:16:30;429.05;;;41.20;;
33802;SDS011;20110;53.120;5.786;2023-04-22T05:18:56;82.72;;;15.00;;
33802;SDS011;20110;53.120;5.786;2023-04-22T05:21:22;201.80;;;25.10;;
33802;SDS011;20110;53.120;5.786;2023-04-22T05:23:48;99.88;;;14.68;;
33802;SDS011;20110;53.120;5.786;2023-04-22T05:26:13;184.10;;;22.20;;
33802;SDS011;20110;53.120;5.786;2023-04-22T05:28:41;98.65;;;17.95;;
33802;SDS011;20110;53.120;5.786;2023-04-22T05:31:07;158.15;;;20.95;;
33802;SDS011;20110;53.120;5.786;2023-04-22T05:33:32;196.07;;;22.13;;
33802;SDS011;20110;53.120;5.786;2023-04-22T05:35:59;159.00;;;21.02;;
33802;SDS011;20110;53.120;5.786;2023-04-22T05:38:25;329.98;;;31.60;;
33802;SDS011;20110;53.120;5.786;2023-04-22T05:40:52;229.80;;;28.88;;
33802;SDS011;20110;53.120;5.786;2023-04-22T05:43:17;298.42;;;30.48;;
33802;SDS011;20110;53.120;5.786;2023-04-22T05:45:43;282.50;;;32.03;;
33802;SDS011;20110;53.120;5.786;2023-04-22T05:48:09;195.88;;;27.83;;
33802;SDS011;20110;53.120;5.786;2023-04-22T05:50:35;152.13;;;25.60;;
33802;SDS011;20110;53.120;5.786;2023-04-22T05:53:01;71.75;;;20.63;;
33802;SDS011;20110;53.120;5.786;2023-04-22T05:55:26;71.93;;;21.50;;
33802;SDS011;20110;53.120;5.786;2023-04-22T05:57:52;42.78;;;19.48;;
33802;SDS011;20110;53.120;5.786;2023-04-22T06:00:18;55.47;;;22.30;;
33802;SDS011;20110;53.120;5.786;2023-04-22T06:02:44;41.83;;;18.65;;
33802;SDS011;20110;53.120;5.786;2023-04-22T06:05:10;37.03;;;18.67;;
33802;SDS011;20110;53.120;5.786;2023-04-22T06:07:35;56.67;;;22.98;;
33802;SDS011;20110;53.120;5.786;2023-04-22T06:10:01;56.50;;;24.00;;
33802;SDS011;20110;53.120;5.786;2023-04-22T06:12:27;56.53;;;24.38;;
33802;SDS011;20110;53.120;5.786;2023-04-22T06:14:53;52.78;;;22.40;;
33802;SDS011;20110;53.120;5.786;2023-04-22T06:17:19;44.95;;;19.80;;
33802;SDS011;20110;53.120;5.786;2023-04-22T06:19:45;45.22;;;20.73;;
33802;SDS011;20110;53.120;5.786;2023-04-22T06:22:10;53.45;;;21.92;;
33802;SDS011;20110;53.120;5.786;2023-04-22T06:24:36;50.03;;;20.80;;
33802;SDS011;20110;53.120;5.786;2023-04-22T06:27:02;47.35;;;21.35;;
33802;SDS011;20110;53.120;5.786;2023-04-22T06:29:28;53.22;;;21.90;;
33802;SDS011;20110;53.120;5.786;2023-04-22T06:31:53;56.80;;;22.48;;
33802;SDS011;20110;53.120;5.786;2023-04-22T06:34:19;53.97;;;22.95;;
33802;SDS011;20110;53.120;5.786;2023-04-22T06:36:45;55.40;;;22.38;;
33802;SDS011;20110;53.120;5.786;2023-04-22T06:39:11;50.25;;;20.25;;
33802;SDS011;20110;53.120;5.786;2023-04-22T06:41:37;36.42;;;19.17;;
33802;SDS011;20110;53.120;5.786;2023-04-22T06:44:02;42.28;;;19.20;;
33802;SDS011;20110;53.120;5.786;2023-04-22T06:46:28;39.55;;;17.98;;
33802;SDS011;20110;53.120;5.786;2023-04-22T06:48:54;43.97;;;20.00;;
33802;SDS011;20110;53.120;5.786;2023-04-22T06:51:20;55.95;;;22.55;;
33802;SDS011;20110;53.120;5.786;2023-04-22T06:53:46;31.83;;;18.23;;
33802;SDS011;20110;53.120;5.786;2023-04-22T06:56:11;39.72;;;18.38;;
33802;SDS011;20110;53.120;5.786;2023-04-22T06:58:37;37.80;;;20.08;;
33802;SDS011;20110;53.120;5.786;2023-04-22T07:01:03;39.40;;;22.25;;
33802;SDS011;20110;53.120;5.786;2023-04-22T07:03:29;42.25;;;21.05;;
33802;SDS011;20110;53.120;5.786;2023-04-22T07:05:55;38.92;;;20.70;;
33802;SDS011;20110;53.120;5.786;2023-04-22T07:08:21;36.80;;;21.13;;
33802;SDS011;20110;53.120;5.786;2023-04-22T07:10:46;39.17;;;22.35;;
33802;SDS011;20110;53.120;5.786;2023-04-22T07:13:12;43.67;;;22.33;;
33802;SDS011;20110;53.120;5.786;2023-04-22T07:15:38;46.03;;;23.30;;
33802;SDS011;20110;53.120;5.786;2023-04-22T07:18:04;46.63;;;24.52;;
33802;SDS011;20110;53.120;5.786;2023-04-22T07:20:30;40.15;;;22.63;;
33802;SDS011;20110;53.120;5.786;2023-04-22T07:22:55;42.85;;;22.73;;
33802;SDS011;20110;53.120;5.786;2023-04-22T07:25:21;40.38;;;23.00;;
33802;SDS011;20110;53.120;5.786;2023-04-22T07:27:47;48.17;;;24.38;;
33802;SDS011;20110;53.120;5.786;2023-04-22T07:30:13;46.03;;;24.30;;
33802;SDS011;20110;53.120;5.786;2023-04-22T07:32:40;39.70;;;22.80;;
33802;SDS011;20110;53.120;5.786;2023-04-22T07:35:06;39.90;;;23.60;;
33802;SDS011;20110;53.120;5.786;2023-04-22T07:37:32;41.15;;;24.33;;
33802;SDS011;20110;53.120;5.786;2023-04-22T07:39:59;38.60;;;22.52;;
33802;SDS011;20110;53.120;5.786;2023-04-22T07:42:24;38.80;;;23.05;;
33802;SDS011;20110;53.120;5.786;2023-04-22T07:44:50;37.05;;;22.58;;
33802;SDS011;20110;53.120;5.786;2023-04-22T07:47:16;36.25;;;21.50;;
33802;SDS011;20110;53.120;5.786;2023-04-22T07:49:42;38.15;;;21.52;;
33802;SDS011;20110;53.120;5.786;2023-04-22T07:52:09;36.42;;;21.98;;
33802;SDS011;20110;53.120;5.786;2023-04-22T07:54:35;32.33;;;19.63;;
33802;SDS011;20110;53.120;5.786;2023-04-22T07:57:01;31.98;;;20.38;;
33802;SDS011;20110;53.120;5.786;2023-04-22T07:59:27;30.30;;;19.58;;
33802;SDS011;20110;53.120;5.786;2023-04-22T08:01:52;35.50;;;20.52;;
33802;SDS011;20110;53.120;5.786;2023-04-22T08:04:21;31.48;;;20.95;;
33802;SDS011;20110;53.120;5.786;2023-04-22T08:06:47;32.30;;;20.58;;
33802;SDS011;20110;53.120;5.786;2023-04-22T08:09:14;29.75;;;19.20;;
33802;SDS011;20110;53.120;5.786;2023-04-22T08:11:40;28.33;;;18.58;;
33802;SDS011;20110;53.120;5.786;2023-04-22T08:14:06;31.35;;;19.40;;
33802;SDS011;20110;53.120;5.786;2023-04-22T08:16:32;26.50;;;18.40;;
33802;SDS011;20110;53.120;5.786;2023-04-22T08:18:58;26.33;;;17.63;;
33802;SDS011;20110;53.120;5.786;2023-04-22T08:21:23;23.75;;;17.42;;
33802;SDS011;20110;53.120;5.786;2023-04-22T08:23:51;22.67;;;16.35;;
33802;SDS011;20110;53.120;5.786;2023-04-22T08:26:18;24.95;;;16.52;;
33802;SDS011;20110;53.120;5.786;2023-04-22T08:28:45;24.17;;;16.15;;
33802;SDS011;20110;53.120;5.786;2023-04-22T08:31:11;25.63;;;16.67;;
33802;SDS011;20110;53.120;5.786;2023-04-22T08:33:40;18.98;;;14.25;;
33802;SDS011;20110;53.120;5.786;2023-04-22T08:36:07;22.52;;;16.40;;
33802;SDS011;20110;53.120;5.786;2023-04-22T08:38:35;17.85;;;14.75;;
33802;SDS011;20110;53.120;5.786;2023-04-22T08:41:01;22.70;;;16.05;;
33802;SDS011;20110;53.120;5.786;2023-04-22T08:43:30;21.85;;;14.30;;
33802;SDS011;20110;53.120;5.786;2023-04-22T08:45:57;20.58;;;14.80;;
33802;SDS011;20110;53.120;5.786;2023-04-22T08:48:24;21.02;;;14.05;;
33802;SDS011;20110;53.120;5.786;2023-04-22T08:50:50;20.10;;;14.93;;
33802;SDS011;20110;53.120;5.786;2023-04-22T08:53:19;23.35;;;15.80;;
33802;SDS011;20110;53.120;5.786;2023-04-22T08:55:45;21.88;;;15.32;;
33802;SDS011;20110;53.120;5.786;2023-04-22T08:58:13;26.05;;;14.23;;
33802;SDS011;20110;53.120;5.786;2023-04-22T09:00:41;21.05;;;15.43;;
33802;SDS011;20110;53.120;5.786;2023-04-22T09:03:08;21.77;;;16.05;;
33802;SDS011;20110;53.120;5.786;2023-04-22T09:05:36;23.92;;;15.50;;
33802;SDS011;20110;53.120;5.786;2023-04-22T09:08:04;24.92;;;16.42;;
33802;SDS011;20110;53.120;5.786;2023-04-22T09:10:32;23.95;;;15.05;;
33802;SDS011;20110;53.120;5.786;2023-04-22T09:13:02;25.83;;;17.05;;
33802;SDS011;20110;53.120;5.786;2023-04-22T09:15:31;23.30;;;16.13;;
33802;SDS011;20110;53.120;5.786;2023-04-22T09:17:59;23.95;;;16.08;;
33802;SDS011;20110;53.120;5.786;2023-04-22T09:20:29;20.70;;;15.93;;
33802;SDS011;20110;53.120;5.786;2023-04-22T09:22:56;20.77;;;16.05;;
33802;SDS011;20110;53.120;5.786;2023-04-22T09:25:28;25.63;;;16.17;;
33802;SDS011;20110;53.120;5.786;2023-04-22T09:27:54;16.67;;;14.30;;
33802;SDS011;20110;53.120;5.786;2023-04-22T09:30:26;20.58;;;15.30;;
33802;SDS011;20110;53.120;5.786;2023-04-22T09:33:02;24.33;;;16.15;;
33802;SDS011;20110;53.120;5.786;2023-04-22T09:35:33;23.25;;;16.88;;
33802;SDS011;20110;53.120;5.786;2023-04-22T09:38:02;21.00;;;15.48;;
33802;SDS011;20110;53.120;5.786;2023-04-22T09:40:32;20.92;;;16.17;;
33802;SDS011;20110;53.120;5.786;2023-04-22T09:43:00;25.73;;;17.27;;
33802;SDS011;20110;53.120;5.786;2023-04-22T09:45:38;23.38;;;15.63;;
33802;SDS011;20110;53.120;5.786;2023-04-22T09:50:38;20.65;;;14.23;;
33802;SDS011;20110;53.120;5.786;2023-04-22T09:53:10;19.35;;;13.77;;
33802;SDS011;20110;53.120;5.786;2023-04-22T09:55:40;22.42;;;16.20;;
33802;SDS011;20110;53.120;5.786;2023-04-22T09:58:10;24.35;;;15.63;;
33802;SDS011;20110;53.120;5.786;2023-04-22T10:03:14;19.63;;;14.50;;
33802;SDS011;20110;53.120;5.786;2023-04-22T10:05:41;17.80;;;13.77;;
33802;SDS011;20110;53.120;5.786;2023-04-22T10:08:09;23.02;;;15.15;;
33802;SDS011;20110;53.120;5.786;2023-04-22T10:10:37;18.83;;;14.40;;
33802;SDS011;20110;53.120;5.786;2023-04-22T10:13:04;23.08;;;15.93;;
33802;SDS011;20110;53.120;5.786;2023-04-22T10:15:32;23.40;;;15.65;;
33802;SDS011;20110;53.120;5.786;2023-04-22T10:18:03;18.45;;;14.60;;
33802;SDS011;20110;53.120;5.786;2023-04-22T10:20:35;16.48;;;13.70;;
33802;SDS011;20110;53.120;5.786;2023-04-22T10:23:04;19.63;;;14.35;;
33802;SDS011;20110;53.120;5.786;2023-04-22T10:25:43;19.42;;;15.05;;
33802;SDS011;20110;53.120;5.786;2023-04-22T10:28:21;18.10;;;14.63;;
33802;SDS011;20110;53.120;5.786;2023-04-22T10:30:52;20.63;;;14.55;;
33802;SDS011;20110;53.120;5.786;2023-04-22T10:36:09;24.25;;;16.15;;
33802;SDS011;20110;53.120;5.786;2023-04-22T10:41:24;22.08;;;16.17;;
33802;SDS011;20110;53.120;5.786;2023-04-22T10:48:58;20.90;;;14.98;;
33802;SDS011;20110;53.120;5.786;2023-04-22T10:51:40;21.17;;;14.93;;
33802;SDS011;20110;53.120;5.786;2023-04-22T11:02:17;19.45;;;15.50;;
33802;SDS011;20110;53.120;5.786;2023-04-22T11:04:44;28.95;;;16.50;;
33802;SDS011;20110;53.120;5.786;2023-04-22T11:17:46;22.73;;;15.50;;
33802;SDS011;20110;53.120;5.786;2023-04-22T11:20:17;19.75;;;16.10;;
33802;SDS011;20110;53.120;5.786;2023-04-22T11:22:45;18.10;;;15.13;;
33802;SDS011;20110;53.120;5.786;2023-04-22T11:25:22;22.38;;;16.08;;
33802;SDS011;20110;53.120;5.786;2023-04-22T11:27:50;21.25;;;15.45;;
33802;SDS011;20110;53.120;5.786;2023-04-22T11:30:22;19.27;;;15.60;;
33802;SDS011;20110;53.120;5.786;2023-04-22T11:32:51;22.63;;;16.52;;
33802;SDS011;20110;53.120;5.786;2023-04-22T11:35:24;15.52;;;12.98;;
33802;SDS011;20110;53.120;5.786;2023-04-22T11:37:55;15.73;;;13.10;;
33802;SDS011;20110;53.120;5.786;2023-04-22T11:40:29;18.83;;;13.57;;
33802;SDS011;20110;53.120;5.786;2023-04-22T11:43:02;17.50;;;13.70;;
33802;SDS011;20110;53.120;5.786;2023-04-22T11:45:32;16.85;;;12.77;;
33802;SDS011;20110;53.120;5.786;2023-04-22T11:48:00;16.75;;;12.88;;
33802;SDS011;20110;53.120;5.786;2023-04-22T11:50:30;16.85;;;13.18;;
33802;SDS011;20110;53.120;5.786;2023-04-22T11:53:03;19.55;;;14.18;;
33802;SDS011;20110;53.120;5.786;2023-04-22T11:55:42;18.45;;;14.27;;
33802;SDS011;20110;53.120;5.786;2023-04-22T11:58:12;20.85;;;14.68;;
33802;SDS011;20110;53.120;5.786;2023-04-22T12:00:41;17.20;;;13.40;;
33802;SDS011;20110;53.120;5.786;2023-04-22T12:03:14;18.42;;;14.43;;
33802;SDS011;20110;53.120;5.786;2023-04-22T12:08:35;18.45;;;14.63;;
33802;SDS011;20110;53.120;5.786;2023-04-22T12:11:09;20.30;;;14.68;;
33802;SDS011;20110;53.120;5.786;2023-04-22T12:16:08;22.58;;;15.48;;
33802;SDS011;20110;53.120;5.786;2023-04-22T12:18:37;22.80;;;15.50;;
33802;SDS011;20110;53.120;5.786;2023-04-22T12:23:44;22.38;;;15.85;;
33802;SDS011;20110;53.120;5.786;2023-04-22T12:26:16;22.45;;;16.35;;
33802;SDS011;20110;53.120;5.786;2023-04-22T12:28:44;24.75;;;16.50;;
33802;SDS011;20110;53.120;5.786;2023-04-22T12:31:11;21.83;;;16.60;;
33802;SDS011;20110;53.120;5.786;2023-04-22T12:33:39;22.73;;;17.75;;
33802;SDS011;20110;53.120;5.786;2023-04-22T12:36:05;28.58;;;17.77;;
33802;SDS011;20110;53.120;5.786;2023-04-22T12:38:32;25.88;;;17.27;;
33802;SDS011;20110;53.120;5.786;2023-04-22T12:40:58;23.17;;;17.02;;
33802;SDS011;20110;53.120;5.786;2023-04-22T12:43:25;23.95;;;16.45;;
33802;SDS011;20110;53.120;5.786;2023-04-22T12:45:51;27.42;;;18.45;;
33802;SDS011;20110;53.120;5.786;2023-04-22T12:48:17;29.02;;;17.98;;
33802;SDS011;20110;53.120;5.786;2023-04-22T12:50:43;25.70;;;16.42;;
33802;SDS011;20110;53.120;5.786;2023-04-22T12:53:11;23.58;;;16.85;;
33802;SDS011;20110;53.120;5.786;2023-04-22T12:55:36;25.33;;;17.65;;
33802;SDS011;20110;53.120;5.786;2023-04-22T12:58:02;25.40;;;17.63;;
33802;SDS011;20110;53.120;5.786;2023-04-22T13:00:28;24.77;;;17.13;;
33802;SDS011;20110;53.120;5.786;2023-04-22T13:02:54;26.85;;;17.15;;
33802;SDS011;20110;53.120;5.786;2023-04-22T13:05:21;26.92;;;18.67;;
33802;SDS011;20110;53.120;5.786;2023-04-22T13:07:46;25.27;;;17.85;;
33802;SDS011;20110;53.120;5.786;2023-04-22T13:10:13;26.38;;;17.35;;
33802;SDS011;20110;53.120;5.786;2023-04-22T13:12:41;30.02;;;18.65;;
33802;SDS011;20110;53.120;5.786;2023-04-22T13:15:08;30.67;;;18.45;;
33802;SDS011;20110;53.120;5.786;2023-04-22T13:17:35;31.35;;;19.17;;
33802;SDS011;20110;53.120;5.786;2023-04-22T13:20:03;30.95;;;19.00;;
33802;SDS011;20110;53.120;5.786;2023-04-22T13:22:33;33.00;;;21.08;;
33802;SDS011;20110;53.120;5.786;2023-04-22T13:25:00;30.65;;;20.05;;
33802;SDS011;20110;53.120;5.786;2023-04-22T13:27:27;29.63;;;19.35;;
33802;SDS011;20110;53.120;5.786;2023-04-22T13:29:53;25.92;;;18.50;;
33802;SDS011;20110;53.120;5.786;2023-04-22T13:32:18;24.23;;;17.33;;
33802;SDS011;20110;53.120;5.786;2023-04-22T13:34:45;28.27;;;17.70;;
33802;SDS011;20110;53.120;5.786;2023-04-22T13:37:11;27.58;;;18.20;;
33802;SDS011;20110;53.120;5.786;2023-04-22T13:39:39;23.23;;;17.33;;
33802;SDS011;20110;53.120;5.786;2023-04-22T13:42:05;31.70;;;18.63;;
33802;SDS011;20110;53.120;5.786;2023-04-22T13:44:31;32.92;;;20.70;;
33802;SDS011;20110;53.120;5.786;2023-04-22T13:46:56;27.77;;;19.15;;
33802;SDS011;20110;53.120;5.786;2023-04-22T13:49:22;31.25;;;20.90;;
33802;SDS011;20110;53.120;5.786;2023-04-22T13:51:50;32.45;;;21.23;;
33802;SDS011;20110;53.120;5.786;2023-04-22T13:54:16;38.83;;;22.40;;
33802;SDS011;20110;53.120;5.786;2023-04-22T13:56:42;36.63;;;22.77;;
33802;SDS011;20110;53.120;5.786;2023-04-22T13:59:08;38.75;;;23.45;;
33802;SDS011;20110;53.120;5.786;2023-04-22T14:01:34;38.60;;;24.27;;
33802;SDS011;20110;53.120;5.786;2023-04-22T14:04:01;33.65;;;23.75;;
33802;SDS011;20110;53.120;5.786;2023-04-22T14:06:28;34.45;;;22.50;;
33802;SDS011;20110;53.120;5.786;2023-04-22T14:08:53;39.08;;;24.73;;
33802;SDS011;20110;53.120;5.786;2023-04-22T14:11:19;48.13;;;24.95;;
33802;SDS011;20110;53.120;5.786;2023-04-22T14:13:45;39.53;;;22.92;;
33802;SDS011;20110;53.120;5.786;2023-04-22T14:16:12;43.72;;;24.55;;
33802;SDS011;20110;53.120;5.786;2023-04-22T14:18:39;47.55;;;27.10;;
33802;SDS011;20110;53.120;5.786;2023-04-22T14:21:06;50.42;;;27.77;;
33802;SDS011;20110;53.120;5.786;2023-04-22T14:23:37;47.38;;;28.98;;
33802;SDS011;20110;53.120;5.786;2023-04-22T14:26:04;52.78;;;31.42;;
33802;SDS011;20110;53.120;5.786;2023-04-22T14:28:33;58.38;;;30.73;;
33802;SDS011;20110;53.120;5.786;2023-04-22T14:30:59;59.97;;;30.75;;
33802;SDS011;20110;53.120;5.786;2023-04-22T14:33:25;58.00;;;31.60;;
33802;SDS011;20110;53.120;5.786;2023-04-22T14:35:51;53.53;;;29.85;;
33802;SDS011;20110;53.120;5.786;2023-04-22T14:38:18;59.65;;;33.65;;
33802;SDS011;20110;53.120;5.786;2023-04-22T14:40:46;61.13;;;32.58;;
33802;SDS011;20110;53.120;5.786;2023-04-22T14:43:12;60.20;;;32.65;;
33802;SDS011;20110;53.120;5.786;2023-04-22T14:45:39;57.47;;;33.92;;
33802;SDS011;20110;53.120;5.786;2023-04-22T14:48:05;54.88;;;27.58;;
33802;SDS011;20110;53.120;5.786;2023-04-22T14:50:31;36.35;;;22.38;;
33802;SDS011;20110;53.120;5.786;2023-04-22T14:52:58;53.38;;;29.85;;
33802;SDS011;20110;53.120;5.786;2023-04-22T14:55:24;51.30;;;29.98;;
33802;SDS011;20110;53.120;5.786;2023-04-22T14:57:53;188.00;;;37.22;;
33802;SDS011;20110;53.120;5.786;2023-04-22T15:00:26;97.13;;;31.13;;